EST,Max TemperatureF,Mean TemperatureF,Min TemperatureF,Max Dew PointF,MeanDew PointF,Min DewpointF,Max Humidity, Mean Humidity, Min Humidity, Max Sea Level PressureIn, Mean Sea Level PressureIn, Min Sea Level PressureIn, Max VisibilityMiles, Mean VisibilityMiles, Min VisibilityMiles, Max Wind SpeedMPH, Mean Wind SpeedMPH, Max Gust SpeedMPH,PrecipitationIn, CloudCover, Events, WindDirDegrees
2012-12-1,59,50,41,46,43,41,100,77,59,30.37,30.31,30.29,10,10,7,16,8,24,0.00,0,,204
2012-12-2,60,55,50,50,46,43,77,69,59,30.31,30.28,30.23,10,10,10,22,11,31,0.00,3,,214
2012-12-3,68,60,53,52,50,46,88,74,52,30.33,30.28,30.25,10,10,10,15,9,21,0.00,4,,213
2012-12-4,64,58,51,52,49,46,88,74,63,30.29,30.24,30.18,10,10,10,20,9,29,0.00,4,,212
2012-12-5,59,50,41,52,39,32,100,75,47,30.29,30.24,30.16,10,9,3,17,9,22,0.05,3,Rain,349
2012-12-6,51,48,44,48,41,19,100,82,34,30.19,30.14,30.10,10,10,4,13,7,16,0.01,8,Rain,176
2012-12-7,59,52,44,50,46,43,100,84,67,30.10,30.04,29.98,10,10,10,12,7,17,0.00,6,,203
2012-12-8,59,55,51,54,51,50,100,88,72,30.04,30.00,29.97,10,10,10,16,9,23,0.00,7,,216
2012-12-9,62,58,53,57,54,52,100,91,68,30.08,30.02,29.91,10,9,2,17,8,25,0.10,6,Rain,198
2012-12-10,59,47,35,54,49,36,100,96,77,29.92,29.78,29.66,10,9,2,14,9,24,0.48,7,Rain-Thunderstorm,215
2012-12-11,35,32,30,36,32,30,100,100,100,30.16,30.02,29.85,10,9,2,9,5,,0.00,8,Snow,341
2012-12-12,35,32,28,32,30,28,100,96,81,30.30,30.25,30.16,10,8,3,8,3,,0.00,1,,22
2012-12-13,50,39,28,34,31,27,100,78,50,30.34,30.29,30.25,10,9,5,8,2,,0.00,0,,153
2012-12-14,53,42,32,36,33,28,100,74,38,30.35,30.28,30.20,10,10,10,8,5,,0.00,0,,208
2012-12-15,57,48,39,45,32,27,100,55,31,30.20,30.09,29.97,10,10,10,14,5,18,0.01,3,Rain,199
2012-12-16,55,50,46,54,49,45,100,94,77,30.00,29.91,29.82,10,10,2,22,11,29,0.03,8,Rain,197
2012-12-17,51,46,42,52,47,43,100,98,82,29.85,29.74,29.62,10,9,2,14,6,28,0.05,6,Rain-Thunderstorm,203
2012-12-18,44,40,37,43,37,32,100,87,70,29.91,29.81,29.66,10,10,5,22,7,20,0.03,4,Rain,245
2012-12-19,53,46,39,39,36,32,81,71,54,30.09,30.02,29.88,10,10,10,24,11,33,0.00,0,,217
2012-12-20,51,42,32,46,39,28,100,80,58,30.06,29.73,29.52,10,9,3,31,12,38,0.29,6,Rain,176
2012-12-21,32,29,26,28,25,23,100,84,80,29.98,29.74,29.61,10,5,0,28,17,39,0.00,8,Snow,273
2012-12-22,35,29,23,27,22,19,86,76,69,30.18,30.10,29.98,10,10,10,20,11,30,0.01,3,Snow,255
2012-12-23,44,36,28,41,27,19,100,69,53,30.09,30.03,29.97,10,10,10,18,11,25,0.00,4,,223
2012-12-24,46,42,37,46,42,37,100,100,87,29.97,29.87,29.79,10,6,0,20,11,25,0.10,8,Fog-Rain,220
2012-12-25,44,40,37,43,40,37,100,98,87,30.07,29.99,29.92,10,5,0,8,3,,0.01,7,Fog-Rain,24
2012-12-26,44,37,30,43,38,28,100,97,81,29.88,29.60,29.44,10,8,3,18,8,31,0.44,8,Rain-Snow,184
2012-12-27,30,28,26,30,28,27,100,100,93,30.07,29.99,29.80,7,4,0,15,9,25,0.00,8,Fog-Snow,298
2012-12-28,37,32,26,36,30,27,100,96,70,30.07,29.96,29.74,10,7,1,13,2,18,0.03,7,Rain,154
2012-12-29,39,32,26,37,32,21,100,95,80,30.07,29.81,29.65,10,6,1,20,12,28,0.04,8,Rain-Snow,262
2012-12-30,32,26,21,25,22,19,93,83,64,30.37,30.29,30.09,10,9,2,15,9,31,0.02,4,Snow,266
2012-12-31,37,30,23,28,23,19,93,70,48,30.30,30.19,30.07,10,10,10,14,7,21,0.00,4,Snow,220